sensor_id;sensor_type;location;lat;lon;timestamp;temperature;humidity
20459;DHT22;10388;52.314;7.938;2023-04-25T03:31:07;5.80;99.90
20459;DHT22;10388;52.314;7.938;2023-04-25T03:33:38;5.70;99.90
20459;DHT22;10388;52.314;7.938;2023-04-25T03:36:09;5.70;99.90
20459;DHT22;10388;52.314;7.938;2023-04-25T03:38:40;5.70;99.90
20459;DHT22;10388;52.314;7.938;2023-04-25T03:41:11;5.70;99.90
20459;DHT22;10388;52.314;7.938;2023-04-25T03:43:42;5.70;99.90
20459;DHT22;10388;52.314;7.938;2023-04-25T03:46:12;5.70;99.90
20459;DHT22;10388;52.314;7.938;2023-04-25T03:48:43;5.70;99.90
20459;DHT22;10388;52.314;7.938;2023-04-25T03:51:14;5.70;99.90
20459;DHT22;10388;52.314;7.938;2023-04-25T03:53:44;5.70;99.90
20459;DHT22;10388;52.314;7.938;2023-04-25T03:56:15;5.70;99.90
20459;DHT22;10388;52.314;7.938;2023-04-25T03:58:45;5.70;99.90
20459;DHT22;10388;52.314;7.938;2023-04-25T04:01:16;5.70;99.90
20459;DHT22;10388;52.314;7.938;2023-04-25T04:03:46;5.60;99.90
20459;DHT22;10388;52.314;7.938;2023-04-25T04:06:17;5.70;99.90
20459;DHT22;10388;52.314;7.938;2023-04-25T04:08:47;5.60;99.90
20459;DHT22;10388;52.314;7.938;2023-04-25T04:11:18;5.70;99.90
20459;DHT22;10388;52.314;7.938;2023-04-25T04:13:48;5.60;99.90
20459;DHT22;10388;52.314;7.938;2023-04-25T04:16:19;5.60;99.90
20459;DHT22;10388;52.314;7.938;2023-04-25T04:18:49;5.60;99.90
20459;DHT22;10388;52.314;7.938;2023-04-25T04:21:20;5.60;99.90
20459;DHT22;10388;52.314;7.938;2023-04-25T04:23:50;5.60;99.90
20459;DHT22;10388;52.314;7.938;2023-04-25T04:26:21;5.60;99.90
20459;DHT22;10388;52.314;7.938;2023-04-25T04:28:56;5.60;99.90
20459;DHT22;10388;52.314;7.938;2023-04-25T04:31:26;5.60;99.90
20459;DHT22;10388;52.314;7.938;2023-04-25T04:33:57;5.50;99.90
20459;DHT22;10388;52.314;7.938;2023-04-25T04:36:27;5.60;99.90
20459;DHT22;10388;52.314;7.938;2023-04-25T04:38:58;5.50;99.90
20459;DHT22;10388;52.314;7.938;2023-04-25T04:41:29;5.50;99.90
20459;DHT22;10388;52.314;7.938;2023-04-25T04:43:59;5.50;99.90
20459;DHT22;10388;52.314;7.938;2023-04-25T04:46:31;5.60;99.90
20459;DHT22;10388;52.314;7.938;2023-04-25T04:49:01;5.60;99.90
20459;DHT22;10388;52.314;7.938;2023-04-25T04:51:33;5.60;99.90
20459;DHT22;10388;52.314;7.938;2023-04-25T04:54:04;5.60;99.90
20459;DHT22;10388;52.314;7.938;2023-04-25T04:56:34;5.60;99.90
20459;DHT22;10388;52.314;7.938;2023-04-25T04:59:05;5.50;99.90
20459;DHT22;10388;52.314;7.938;2023-04-25T05:01:36;5.50;99.90
20459;DHT22;10388;52.314;7.938;2023-04-25T05:04:06;5.50;99.90
20459;DHT22;10388;52.314;7.938;2023-04-25T05:06:37;5.60;99.90
20459;DHT22;10388;52.314;7.938;2023-04-25T05:09:07;5.50;99.90
20459;DHT22;10388;52.314;7.938;2023-04-25T05:11:38;5.50;99.90
20459;DHT22;10388;52.314;7.938;2023-04-25T05:14:08;5.50;99.90
20459;DHT22;10388;52.314;7.938;2023-04-25T05:16:39;5.60;99.90
20459;DHT22;10388;52.314;7.938;2023-04-25T05:19:09;5.50;99.90
20459;DHT22;10388;52.314;7.938;2023-04-25T05:21:40;5.50;99.90
20459;DHT22;10388;52.314;7.938;2023-04-25T05:24:10;5.60;99.90
20459;DHT22;10388;52.314;7.938;2023-04-25T05:26:41;5.60;99.90
20459;DHT22;10388;52.314;7.938;2023-04-25T05:29:11;5.60;99.90
20459;DHT22;10388;52.314;7.938;2023-04-25T05:31:42;5.60;99.90
20459;DHT22;10388;52.314;7.938;2023-04-25T05:34:13;5.70;99.90
20459;DHT22;10388;52.314;7.938;2023-04-25T05:36:43;5.70;99.90
20459;DHT22;10388;52.314;7.938;2023-04-25T05:39:17;5.70;99.90
20459;DHT22;10388;52.314;7.938;2023-04-25T05:41:47;5.80;99.90
20459;DHT22;10388;52.314;7.938;2023-04-25T05:44:18;5.80;99.90
20459;DHT22;10388;52.314;7.938;2023-04-25T05:46:49;5.80;99.90
20459;DHT22;10388;52.314;7.938;2023-04-25T05:49:20;5.90;99.90
20459;DHT22;10388;52.314;7.938;2023-04-25T05:51:50;5.90;99.90
20459;DHT22;10388;52.314;7.938;2023-04-25T05:54:21;5.90;99.90
20459;DHT22;10388;52.314;7.938;2023-04-25T05:56:51;6.00;99.90
20459;DHT22;10388;52.314;7.938;2023-04-25T05:59:22;6.10;99.90
20459;DHT22;10388;52.314;7.938;2023-04-25T06:01:52;6.10;99.90
20459;DHT22;10388;52.314;7.938;2023-04-25T06:04:23;6.10;99.90
20459;DHT22;10388;52.314;7.938;2023-04-25T06:06:54;6.10;99.90
20459;DHT22;10388;52.314;7.938;2023-04-25T06:09:24;6.10;99.90
20459;DHT22;10388;52.314;7.938;2023-04-25T06:11:55;6.20;99.90
20459;DHT22;10388;52.314;7.938;2023-04-25T06:14:25;6.30;99.90
20459;DHT22;10388;52.314;7.938;2023-04-25T06:16:56;6.30;99.90
20459;DHT22;10388;52.314;7.938;2023-04-25T06:19:26;6.40;99.90
20459;DHT22;10388;52.314;7.938;2023-04-25T06:21:57;6.30;99.90
20459;DHT22;10388;52.314;7.938;2023-04-25T06:24:28;6.40;99.90
20459;DHT22;10388;52.314;7.938;2023-04-25T06:26:58;6.50;99.90
20459;DHT22;10388;52.314;7.938;2023-04-25T06:29:29;6.60;99.90
20459;DHT22;10388;52.314;7.938;2023-04-25T06:31:59;6.60;99.90
20459;DHT22;10388;52.314;7.938;2023-04-25T06:34:30;6.60;99.90
20459;DHT22;10388;52.314;7.938;2023-04-25T06:37:00;6.70;99.90
20459;DHT22;10388;52.314;7.938;2023-04-25T06:39:31;6.80;99.90
20459;DHT22;10388;52.314;7.938;2023-04-25T06:42:01;6.80;99.90
20459;DHT22;10388;52.314;7.938;2023-04-25T06:44:32;6.80;99.90
20459;DHT22;10388;52.314;7.938;2023-04-25T06:47:03;6.90;99.90
20459;DHT22;10388;52.314;7.938;2023-04-25T06:49:33;6.90;99.90
20459;DHT22;10388;52.314;7.938;2023-04-25T06:52:04;7.00;99.90
20459;DHT22;10388;52.314;7.938;2023-04-25T06:54:34;7.00;99.90
20459;DHT22;10388;52.314;7.938;2023-04-25T06:57:05;7.10;99.90
20459;DHT22;10388;52.314;7.938;2023-04-25T06:59:35;6.90;99.90
20459;DHT22;10388;52.314;7.938;2023-04-25T07:02:06;7.20;99.90
20459;DHT22;10388;52.314;7.938;2023-04-25T07:04:36;7.40;99.90
20459;DHT22;10388;52.314;7.938;2023-04-25T07:07:07;7.90;99.90
20459;DHT22;10388;52.314;7.938;2023-04-25T07:09:38;8.20;99.90
20459;DHT22;10388;52.314;7.938;2023-04-25T07:12:08;8.20;99.90
20459;DHT22;10388;52.314;7.938;2023-04-25T07:14:39;8.00;99.90
20459;DHT22;10388;52.314;7.938;2023-04-25T07:17:09;7.90;99.90
20459;DHT22;10388;52.314;7.938;2023-04-25T07:19:40;7.90;99.90
20459;DHT22;10388;52.314;7.938;2023-04-25T07:22:11;7.90;99.90
20459;DHT22;10388;52.314;7.938;2023-04-25T07:24:41;7.90;99.90
20459;DHT22;10388;52.314;7.938;2023-04-25T07:27:12;7.90;99.90
20459;DHT22;10388;52.314;7.938;2023-04-25T07:29:42;8.00;99.90
20459;DHT22;10388;52.314;7.938;2023-04-25T07:32:13;8.00;99.90
20459;DHT22;10388;52.314;7.938;2023-04-25T07:34:44;7.80;99.90
20459;DHT22;10388;52.314;7.938;2023-04-25T07:37:14;7.90;99.90
20459;DHT22;10388;52.314;7.938;2023-04-25T07:39:45;7.70;99.90
20459;DHT22;10388;52.314;7.938;2023-04-25T07:42:19;7.60;99.90
20459;DHT22;10388;52.314;7.938;2023-04-25T07:44:49;7.70;99.90
20459;DHT22;10388;52.314;7.938;2023-04-25T07:47:21;7.70;99.90
20459;DHT22;10388;52.314;7.938;2023-04-25T07:49:52;7.90;99.90
20459;DHT22;10388;52.314;7.938;2023-04-25T07:52:23;8.10;99.90
20459;DHT22;10388;52.314;7.938;2023-04-25T07:54:53;8.30;99.90
20459;DHT22;10388;52.314;7.938;2023-04-25T07:57:24;8.50;99.90
20459;DHT22;10388;52.314;7.938;2023-04-25T07:59:54;8.30;99.90
20459;DHT22;10388;52.314;7.938;2023-04-25T08:02:25;8.10;99.90
20459;DHT22;10388;52.314;7.938;2023-04-25T08:04:58;8.20;99.90
20459;DHT22;10388;52.314;7.938;2023-04-25T08:07:29;8.30;99.90
20459;DHT22;10388;52.314;7.938;2023-04-25T08:09:59;8.60;99.90
20459;DHT22;10388;52.314;7.938;2023-04-25T08:12:30;8.70;99.90
20459;DHT22;10388;52.314;7.938;2023-04-25T08:15:00;8.90;99.90
20459;DHT22;10388;52.314;7.938;2023-04-25T08:17:31;9.10;99.90
20459;DHT22;10388;52.314;7.938;2023-04-25T08:20:01;9.30;99.90
20459;DHT22;10388;52.314;7.938;2023-04-25T08:22:35;9.30;99.90
20459;DHT22;10388;52.314;7.938;2023-04-25T08:25:06;9.10;99.90
20459;DHT22;10388;52.314;7.938;2023-04-25T08:27:36;8.60;99.90
20459;DHT22;10388;52.314;7.938;2023-04-25T08:30:07;8.70;99.90
20459;DHT22;10388;52.314;7.938;2023-04-25T08:32:39;8.70;99.90
20459;DHT22;10388;52.314;7.938;2023-04-25T08:35:09;9.20;99.90
20459;DHT22;10388;52.314;7.938;2023-04-25T08:37:40;9.20;99.90
20459;DHT22;10388;52.314;7.938;2023-04-25T08:40:14;9.10;99.90
20459;DHT22;10388;52.314;7.938;2023-04-25T08:42:45;9.00;99.90
20459;DHT22;10388;52.314;7.938;2023-04-25T08:45:17;9.10;99.90
20459;DHT22;10388;52.314;7.938;2023-04-25T08:47:47;8.80;99.90
20459;DHT22;10388;52.314;7.938;2023-04-25T08:50:22;8.60;99.90
20459;DHT22;10388;52.314;7.938;2023-04-25T08:52:54;8.40;99.90
20459;DHT22;10388;52.314;7.938;2023-04-25T08:55:24;8.20;99.90
20459;DHT22;10388;52.314;7.938;2023-04-25T08:57:56;8.30;99.90
20459;DHT22;10388;52.314;7.938;2023-04-25T09:00:28;8.40;99.90
20459;DHT22;10388;52.314;7.938;2023-04-25T09:02:59;8.40;99.90
20459;DHT22;10388;52.314;7.938;2023-04-25T09:05:29;8.30;99.90
20459;DHT22;10388;52.314;7.938;2023-04-25T09:08:01;8.40;99.90
20459;DHT22;10388;52.314;7.938;2023-04-25T09:10:31;8.60;99.90
20459;DHT22;10388;52.314;7.938;2023-04-25T09:13:10;8.60;99.90
20459;DHT22;10388;52.314;7.938;2023-04-25T09:15:53;8.40;99.90
20459;DHT22;10388;52.314;7.938;2023-04-25T09:18:26;8.50;99.90
20459;DHT22;10388;52.314;7.938;2023-04-25T09:21:04;8.40;99.90
20459;DHT22;10388;52.314;7.938;2023-04-25T09:23:49;8.50;99.90
20459;DHT22;10388;52.314;7.938;2023-04-25T09:26:21;8.90;99.90
20459;DHT22;10388;52.314;7.938;2023-04-25T09:29:05;9.50;99.90
20459;DHT22;10388;52.314;7.938;2023-04-25T09:31:37;9.90;99.90
20459;DHT22;10388;52.314;7.938;2023-04-25T09:34:07;10.20;99.90
20459;DHT22;10388;52.314;7.938;2023-04-25T09:36:40;10.50;99.90
20459;DHT22;10388;52.314;7.938;2023-04-25T09:39:13;10.60;99.90
20459;DHT22;10388;52.314;7.938;2023-04-25T09:41:45;10.50;99.90
20459;DHT22;10388;52.314;7.938;2023-04-25T09:44:23;10.10;99.90
20459;DHT22;10388;52.314;7.938;2023-04-25T09:46:54;9.70;99.90
20459;DHT22;10388;52.314;7.938;2023-04-25T09:49:25;9.50;99.90
20459;DHT22;10388;52.314;7.938;2023-04-25T09:51:58;9.30;99.90
20459;DHT22;10388;52.314;7.938;2023-04-25T09:54:29;9.20;99.90
20459;DHT22;10388;52.314;7.938;2023-04-25T09:57:04;9.20;99.90
20459;DHT22;10388;52.314;7.938;2023-04-25T09:59:39;9.00;99.90
20459;DHT22;10388;52.314;7.938;2023-04-25T10:02:13;8.90;99.90
20459;DHT22;10388;52.314;7.938;2023-04-25T10:04:48;9.00;99.90
20459;DHT22;10388;52.314;7.938;2023-04-25T10:07:19;9.00;99.90
20459;DHT22;10388;52.314;7.938;2023-04-25T10:09:57;9.10;99.90
20459;DHT22;10388;52.314;7.938;2023-04-25T10:12:30;9.20;99.90
20459;DHT22;10388;52.314;7.938;2023-04-25T10:15:04;9.70;99.90
20459;DHT22;10388;52.314;7.938;2023-04-25T10:17:35;9.80;99.90
20459;DHT22;10388;52.314;7.938;2023-04-25T10:20:07;9.80;99.90
20459;DHT22;10388;52.314;7.938;2023-04-25T10:22:44;9.80;99.90
20459;DHT22;10388;52.314;7.938;2023-04-25T10:25:17;9.60;99.90
20459;DHT22;10388;52.314;7.938;2023-04-25T10:27:51;9.70;99.90
20459;DHT22;10388;52.314;7.938;2023-04-25T10:30:21;9.40;99.90
20459;DHT22;10388;52.314;7.938;2023-04-25T10:32:55;9.20;99.90
20459;DHT22;10388;52.314;7.938;2023-04-25T10:35:27;9.00;99.90
20459;DHT22;10388;52.314;7.938;2023-04-25T10:38:24;8.80;99.90
20459;DHT22;10388;52.314;7.938;2023-04-25T10:41:06;8.70;99.90
20459;DHT22;10388;52.314;7.938;2023-04-25T10:43:43;8.50;99.90
20459;DHT22;10388;52.314;7.938;2023-04-25T10:46:25;8.50;99.90
20459;DHT22;10388;52.314;7.938;2023-04-25T10:48:58;8.50;99.90
20459;DHT22;10388;52.314;7.938;2023-04-25T10:51:31;8.80;99.90
20459;DHT22;10388;52.314;7.938;2023-04-25T10:54:05;8.80;99.90
20459;DHT22;10388;52.314;7.938;2023-04-25T10:59:13;9.00;99.90
20459;DHT22;10388;52.314;7.938;2023-04-25T11:01:45;9.50;99.90
20459;DHT22;10388;52.314;7.938;2023-04-25T11:04:32;9.60;99.90
20459;DHT22;10388;52.314;7.938;2023-04-25T11:07:41;9.80;99.90
20459;DHT22;10388;52.314;7.938;2023-04-25T11:10:14;9.70;99.90
20459;DHT22;10388;52.314;7.938;2023-04-25T11:12:46;9.70;99.90
20459;DHT22;10388;52.314;7.938;2023-04-25T11:15:17;9.60;99.90
20459;DHT22;10388;52.314;7.938;2023-04-25T11:17:48;9.40;99.90
20459;DHT22;10388;52.314;7.938;2023-04-25T11:20:19;9.60;99.90
20459;DHT22;10388;52.314;7.938;2023-04-25T11:22:49;10.00;99.90
20459;DHT22;10388;52.314;7.938;2023-04-25T11:25:20;9.60;99.90
20459;DHT22;10388;52.314;7.938;2023-04-25T11:27:55;9.70;99.90
20459;DHT22;10388;52.314;7.938;2023-04-25T11:30:30;10.30;99.90
20459;DHT22;10388;52.314;7.938;2023-04-25T11:33:00;10.70;99.90
20459;DHT22;10388;52.314;7.938;2023-04-25T11:35:33;11.20;99.90
20459;DHT22;10388;52.314;7.938;2023-04-25T11:38:04;11.50;99.90
20459;DHT22;10388;52.314;7.938;2023-04-25T11:40:38;11.10;99.90
20459;DHT22;10388;52.314;7.938;2023-04-25T11:43:09;10.80;99.90
20459;DHT22;10388;52.314;7.938;2023-04-25T11:45:39;10.70;99.90
20459;DHT22;10388;52.314;7.938;2023-04-25T11:48:10;10.50;99.90
20459;DHT22;10388;52.314;7.938;2023-04-25T11:50:40;10.10;99.90
20459;DHT22;10388;52.314;7.938;2023-04-25T11:53:11;9.70;99.90
20459;DHT22;10388;52.314;7.938;2023-04-25T11:55:42;9.50;99.90
20459;DHT22;10388;52.314;7.938;2023-04-25T11:58:13;9.40;99.90
20459;DHT22;10388;52.314;7.938;2023-04-25T12:00:44;9.30;99.90
20459;DHT22;10388;52.314;7.938;2023-04-25T12:03:14;9.30;99.90
20459;DHT22;10388;52.314;7.938;2023-04-25T12:05:45;9.30;99.90
20459;DHT22;10388;52.314;7.938;2023-04-25T12:08:16;9.00;99.90
20459;DHT22;10388;52.314;7.938;2023-04-25T12:10:47;8.80;99.90
20459;DHT22;10388;52.314;7.938;2023-04-25T12:13:23;8.80;99.90
20459;DHT22;10388;52.314;7.938;2023-04-25T12:15:57;8.70;99.90
20459;DHT22;10388;52.314;7.938;2023-04-25T12:18:27;8.70;99.90
20459;DHT22;10388;52.314;7.938;2023-04-25T12:20:58;8.60;99.90
20459;DHT22;10388;52.314;7.938;2023-04-25T12:23:29;8.40;99.90
20459;DHT22;10388;52.314;7.938;2023-04-25T12:26:00;8.50;99.90
20459;DHT22;10388;52.314;7.938;2023-04-25T12:28:33;8.70;99.90
20459;DHT22;10388;52.314;7.938;2023-04-25T12:31:05;8.90;99.90
20459;DHT22;10388;52.314;7.938;2023-04-25T12:33:37;9.00;99.90
20459;DHT22;10388;52.314;7.938;2023-04-25T12:36:07;9.30;99.90
20459;DHT22;10388;52.314;7.938;2023-04-25T12:38:43;9.40;99.90
20459;DHT22;10388;52.314;7.938;2023-04-25T12:41:13;10.10;99.90
20459;DHT22;10388;52.314;7.938;2023-04-25T12:43:44;10.80;99.90
20459;DHT22;10388;52.314;7.938;2023-04-25T12:46:15;11.10;99.90
20459;DHT22;10388;52.314;7.938;2023-04-25T12:48:45;11.00;99.90
20459;DHT22;10388;52.314;7.938;2023-04-25T12:51:16;10.80;99.90
20459;DHT22;10388;52.314;7.938;2023-04-25T12:53:46;10.70;99.90
20459;DHT22;10388;52.314;7.938;2023-04-25T12:56:17;10.60;99.90
20459;DHT22;10388;52.314;7.938;2023-04-25T12:58:47;10.60;99.90
20459;DHT22;10388;52.314;7.938;2023-04-25T13:01:18;10.40;99.90
20459;DHT22;10388;52.314;7.938;2023-04-25T13:03:49;10.30;99.90
20459;DHT22;10388;52.314;7.938;2023-04-25T13:06:21;10.30;99.90
20459;DHT22;10388;52.314;7.938;2023-04-25T13:08:52;10.20;99.90
20459;DHT22;10388;52.314;7.938;2023-04-25T13:11:23;10.60;99.90
20459;DHT22;10388;52.314;7.938;2023-04-25T13:13:53;11.10;99.90
20459;DHT22;10388;52.314;7.938;2023-04-25T13:16:24;11.60;99.90
20459;DHT22;10388;52.314;7.938;2023-04-25T13:18:54;11.00;99.90
20459;DHT22;10388;52.314;7.938;2023-04-25T13:21:26;11.30;99.90
20459;DHT22;10388;52.314;7.938;2023-04-25T13:23:57;11.80;99.90
20459;DHT22;10388;52.314;7.938;2023-04-25T13:26:27;11.70;99.90
20459;DHT22;10388;52.314;7.938;2023-04-25T13:28:58;11.60;99.90
20459;DHT22;10388;52.314;7.938;2023-04-25T13:31:31;11.90;99.90
20459;DHT22;10388;52.314;7.938;2023-04-25T13:34:01;11.60;99.90
20459;DHT22;10388;52.314;7.938;2023-04-25T13:36:32;11.40;99.90
20459;DHT22;10388;52.314;7.938;2023-04-25T13:39:03;11.40;99.90
20459;DHT22;10388;52.314;7.938;2023-04-25T13:41:34;11.90;99.90
20459;DHT22;10388;52.314;7.938;2023-04-25T13:44:05;12.30;99.90
20459;DHT22;10388;52.314;7.938;2023-04-25T13:46:36;12.20;99.90
20459;DHT22;10388;52.314;7.938;2023-04-25T13:49:07;11.80;99.90
20459;DHT22;10388;52.314;7.938;2023-04-25T13:51:38;11.80;99.90
20459;DHT22;10388;52.314;7.938;2023-04-25T13:54:08;11.60;99.90
20459;DHT22;10388;52.314;7.938;2023-04-25T13:56:39;10.80;99.90
20459;DHT22;10388;52.314;7.938;2023-04-25T13:59:12;9.50;99.90
20459;DHT22;10388;52.314;7.938;2023-04-25T14:01:42;9.00;99.90
20459;DHT22;10388;52.314;7.938;2023-04-25T14:04:13;8.80;99.90
20459;DHT22;10388;52.314;7.938;2023-04-25T14:06:43;8.50;99.90
20459;DHT22;10388;52.314;7.938;2023-04-25T14:09:14;7.90;99.90
20459;DHT22;10388;52.314;7.938;2023-04-25T14:11:45;7.80;99.90
20459;DHT22;10388;52.314;7.938;2023-04-25T14:14:16;8.10;99.90
20459;DHT22;10388;52.314;7.938;2023-04-25T14:16:47;8.10;99.90
20459;DHT22;10388;52.314;7.938;2023-04-25T14:19:21;8.50;99.90
20459;DHT22;10388;52.314;7.938;2023-04-25T14:21:52;9.40;99.90
20459;DHT22;10388;52.314;7.938;2023-04-25T14:24:22;10.10;99.90
20459;DHT22;10388;52.314;7.938;2023-04-25T14:26:53;10.20;99.90
20459;DHT22;10388;52.314;7.938;2023-04-25T14:29:23;10.40;99.90
20459;DHT22;10388;52.314;7.938;2023-04-25T14:31:54;10.70;99.90
20459;DHT22;10388;52.314;7.938;2023-04-25T14:34:25;11.10;99.90
20459;DHT22;10388;52.314;7.938;2023-04-25T14:36:55;11.20;99.90
20459;DHT22;10388;52.314;7.938;2023-04-25T14:39:26;11.30;99.90
20459;DHT22;10388;52.314;7.938;2023-04-25T14:41:56;11.10;99.90
20459;DHT22;10388;52.314;7.938;2023-04-25T14:44:28;10.90;99.90
20459;DHT22;10388;52.314;7.938;2023-04-25T14:46:58;11.10;99.90
20459;DHT22;10388;52.314;7.938;2023-04-25T14:49:29;11.00;99.90
20459;DHT22;10388;52.314;7.938;2023-04-25T14:51:59;10.40;99.90
20459;DHT22;10388;52.314;7.938;2023-04-25T14:54:31;10.60;99.90
20459;DHT22;10388;52.314;7.938;2023-04-25T14:57:02;10.60;99.90
20459;DHT22;10388;52.314;7.938;2023-04-25T14:59:33;10.60;99.90
20459;DHT22;10388;52.314;7.938;2023-04-25T15:02:03;10.70;99.90
20459;DHT22;10388;52.314;7.938;2023-04-25T15:04:34;10.50;99.90
20459;DHT22;10388;52.314;7.938;2023-04-25T15:07:05;10.10;99.90
20459;DHT22;10388;52.314;7.938;2023-04-25T15:09:35;9.70;99.90
20459;DHT22;10388;52.314;7.938;2023-04-25T15:12:06;9.60;99.90
20459;DHT22;10388;52.314;7.938;2023-04-25T15:14:37;9.20;99.90
20459;DHT22;10388;52.314;7.938;2023-04-25T15:17:07;9.10;99.90
20459;DHT22;10388;52.314;7.938;2023-04-25T15:19:38;9.20;99.90
20459;DHT22;10388;52.314;7.938;2023-04-25T15:22:08;9.20;99.90
20459;DHT22;10388;52.314;7.938;2023-04-25T15:24:39;9.30;99.90
20459;DHT22;10388;52.314;7.938;2023-04-25T15:27:10;9.90;99.90
20459;DHT22;10388;52.314;7.938;2023-04-25T15:29:41;10.10;99.90
20459;DHT22;10388;52.314;7.938;2023-04-25T15:32:11;10.30;99.90
20459;DHT22;10388;52.314;7.938;2023-04-25T15:34:42;10.30;99.90
20459;DHT22;10388;52.314;7.938;2023-04-25T15:37:13;10.30;99.90
20459;DHT22;10388;52.314;7.938;2023-04-25T15:39:44;10.20;99.90
20459;DHT22;10388;52.314;7.938;2023-04-25T15:42:14;10.30;99.90
20459;DHT22;10388;52.314;7.938;2023-04-25T15:44:45;10.30;99.90
20459;DHT22;10388;52.314;7.938;2023-04-25T15:47:16;10.40;99.90
20459;DHT22;10388;52.314;7.938;2023-04-25T15:49:47;10.40;99.90
20459;DHT22;10388;52.314;7.938;2023-04-25T15:52:17;10.40;99.90
20459;DHT22;10388;52.314;7.938;2023-04-25T15:54:51;10.30;99.90
20459;DHT22;10388;52.314;7.938;2023-04-25T15:57:22;10.30;99.90
20459;DHT22;10388;52.314;7.938;2023-04-25T15:59:53;10.00;99.90
20459;DHT22;10388;52.314;7.938;2023-04-25T16:02:23;9.60;99.90
20459;DHT22;10388;52.314;7.938;2023-04-25T16:04:54;9.60;99.90
20459;DHT22;10388;52.314;7.938;2023-04-25T16:07:24;9.50;99.90
20459;DHT22;10388;52.314;7.938;2023-04-25T16:09:55;9.30;99.90
20459;DHT22;10388;52.314;7.938;2023-04-25T16:12:25;9.30;99.90
20459;DHT22;10388;52.314;7.938;2023-04-25T16:14:57;9.20;99.90
20459;DHT22;10388;52.314;7.938;2023-04-25T16:17:28;9.00;99.90
20459;DHT22;10388;52.314;7.938;2023-04-25T16:19:59;8.80;99.90
20459;DHT22;10388;52.314;7.938;2023-04-25T16:22:31;9.20;99.90
20459;DHT22;10388;52.314;7.938;2023-04-25T16:25:02;9.20;99.90
20459;DHT22;10388;52.314;7.938;2023-04-25T16:27:34;9.00;99.90
20459;DHT22;10388;52.314;7.938;2023-04-25T16:30:09;8.90;99.90
20459;DHT22;10388;52.314;7.938;2023-04-25T16:32:40;8.90;99.90
20459;DHT22;10388;52.314;7.938;2023-04-25T16:35:10;9.00;99.90
20459;DHT22;10388;52.314;7.938;2023-04-25T16:37:41;9.10;99.90
20459;DHT22;10388;52.314;7.938;2023-04-25T16:40:12;9.00;99.90
20459;DHT22;10388;52.314;7.938;2023-04-25T16:42:42;8.90;99.90
20459;DHT22;10388;52.314;7.938;2023-04-25T16:45:13;8.80;99.90
20459;DHT22;10388;52.314;7.938;2023-04-25T16:47:44;8.80;99.90
20459;DHT22;10388;52.314;7.938;2023-04-25T16:50:15;8.70;99.90
20459;DHT22;10388;52.314;7.938;2023-04-25T16:52:46;8.70;99.90
20459;DHT22;10388;52.314;7.938;2023-04-25T16:55:16;8.60;99.90
20459;DHT22;10388;52.314;7.938;2023-04-25T16:57:47;8.60;99.90
20459;DHT22;10388;52.314;7.938;2023-04-25T17:00:18;8.50;99.90
20459;DHT22;10388;52.314;7.938;2023-04-25T17:02:48;8.40;99.90
20459;DHT22;10388;52.314;7.938;2023-04-25T17:05:19;8.30;99.90
20459;DHT22;10388;52.314;7.938;2023-04-25T17:07:49;8.30;99.90
20459;DHT22;10388;52.314;7.938;2023-04-25T17:10:21;8.20;99.90
20459;DHT22;10388;52.314;7.938;2023-04-25T17:12:52;8.00;99.90
20459;DHT22;10388;52.314;7.938;2023-04-25T17:15:23;7.90;99.90
20459;DHT22;10388;52.314;7.938;2023-04-25T17:17:53;7.90;99.90
20459;DHT22;10388;52.314;7.938;2023-04-25T17:20:24;8.00;99.90
20459;DHT22;10388;52.314;7.938;2023-04-25T17:22:55;8.00;99.90
20459;DHT22;10388;52.314;7.938;2023-04-25T17:25:26;8.00;99.90
20459;DHT22;10388;52.314;7.938;2023-04-25T17:27:57;8.00;99.90
20459;DHT22;10388;52.314;7.938;2023-04-25T17:30:27;8.00;99.90
20459;DHT22;10388;52.314;7.938;2023-04-25T17:32:58;8.00;99.90
20459;DHT22;10388;52.314;7.938;2023-04-25T17:35:29;8.00;99.90
20459;DHT22;10388;52.314;7.938;2023-04-25T17:37:59;8.10;99.90
20459;DHT22;10388;52.314;7.938;2023-04-25T17:40:30;8.10;99.90
20459;DHT22;10388;52.314;7.938;2023-04-25T17:43:00;8.00;99.90
20459;DHT22;10388;52.314;7.938;2023-04-25T17:45:31;8.00;99.90
20459;DHT22;10388;52.314;7.938;2023-04-25T17:48:03;8.00;99.90
20459;DHT22;10388;52.314;7.938;2023-04-25T17:50:34;8.10;99.90
20459;DHT22;10388;52.314;7.938;2023-04-25T17:53:05;7.90;99.90
20459;DHT22;10388;52.314;7.938;2023-04-25T17:55:35;7.80;99.90
20459;DHT22;10388;52.314;7.938;2023-04-25T17:58:06;7.70;99.90
20459;DHT22;10388;52.314;7.938;2023-04-25T18:00:37;7.60;99.90
20459;DHT22;10388;52.314;7.938;2023-04-25T18:03:08;7.60;99.90
20459;DHT22;10388;52.314;7.938;2023-04-25T18:05:38;7.50;99.90
20459;DHT22;10388;52.314;7.938;2023-04-25T18:08:09;7.50;99.90
20459;DHT22;10388;52.314;7.938;2023-04-25T18:10:39;7.40;99.90
20459;DHT22;10388;52.314;7.938;2023-04-25T18:13:10;7.30;99.90
20459;DHT22;10388;52.314;7.938;2023-04-25T18:15:40;7.30;99.90
20459;DHT22;10388;52.314;7.938;2023-04-25T18:18:11;7.20;99.90
20459;DHT22;10388;52.314;7.938;2023-04-25T18:20:49;7.20;99.90
20459;DHT22;10388;52.314;7.938;2023-04-25T18:23:19;7.20;99.90
20459;DHT22;10388;52.314;7.938;2023-04-25T18:25:51;7.20;99.90
20459;DHT22;10388;52.314;7.938;2023-04-25T18:28:23;7.20;99.90
20459;DHT22;10388;52.314;7.938;2023-04-25T18:30:53;7.10;99.90
20459;DHT22;10388;52.314;7.938;2023-04-25T18:33:24;7.10;99.90
20459;DHT22;10388;52.314;7.938;2023-04-25T18:35:54;7.10;99.90
20459;DHT22;10388;52.314;7.938;2023-04-25T18:38:27;7.00;99.90
20459;DHT22;10388;52.314;7.938;2023-04-25T18:40:58;6.90;99.90
20459;DHT22;10388;52.314;7.938;2023-04-25T18:43:28;6.90;99.90
20459;DHT22;10388;52.314;7.938;2023-04-25T18:45:59;6.80;99.90
20459;DHT22;10388;52.314;7.938;2023-04-25T18:48:29;6.80;99.90
20459;DHT22;10388;52.314;7.938;2023-04-25T18:51:00;6.80;99.90
20459;DHT22;10388;52.314;7.938;2023-04-25T18:53:31;6.70;99.90
20459;DHT22;10388;52.314;7.938;2023-04-25T18:56:01;6.60;99.90
20459;DHT22;10388;52.314;7.938;2023-04-25T18:58:32;6.60;99.90
20459;DHT22;10388;52.314;7.938;2023-04-25T19:01:03;6.60;99.90
20459;DHT22;10388;52.314;7.938;2023-04-25T19:03:34;6.60;99.90
20459;DHT22;10388;52.314;7.938;2023-04-25T19:06:05;6.50;99.90
20459;DHT22;10388;52.314;7.938;2023-04-25T19:08:36;6.40;99.90
20459;DHT22;10388;52.314;7.938;2023-04-25T19:11:07;6.40;99.90
20459;DHT22;10388;52.314;7.938;2023-04-25T19:13:38;6.30;99.90
20459;DHT22;10388;52.314;7.938;2023-04-25T19:16:08;6.20;99.90
20459;DHT22;10388;52.314;7.938;2023-04-25T19:18:39;6.20;99.90
20459;DHT22;10388;52.314;7.938;2023-04-25T19:21:09;6.10;99.90
20459;DHT22;10388;52.314;7.938;2023-04-25T19:23:40;6.00;99.90
20459;DHT22;10388;52.314;7.938;2023-04-25T19:26:11;5.90;99.90
20459;DHT22;10388;52.314;7.938;2023-04-25T19:28:42;5.70;99.90
20459;DHT22;10388;52.314;7.938;2023-04-25T19:31:14;5.70;99.90
20459;DHT22;10388;52.314;7.938;2023-04-25T19:33:44;5.60;99.90
20459;DHT22;10388;52.314;7.938;2023-04-25T19:36:16;5.50;99.90
20459;DHT22;10388;52.314;7.938;2023-04-25T19:38:46;5.40;99.90
20459;DHT22;10388;52.314;7.938;2023-04-25T19:41:17;5.30;99.90